Airfield :
LOGIN :

Register | Disclaimer

   EN    FR    IT 

 










Legend :    VFR   Marginal VFR   IFR   Intensive IFR   Very Intensive IFR
Visi :
Ceiling :
>= 8 km
>= 3000ft
5 to 8 km
1000 to 3000 ft
1500m to 5 km
500 to 1000 ft
800 to 1500m
200 to 500 ft
< 800m
< 200 ft
Symbols :   Thunderstorms  Fog  Heavy snow  Heavy precipitations  Wind > 20 kt
SIGMETs :     Misc.  Thunderstorms  Icing  Turbulence  Mountain Waves  Volcanic Ashes







- Airport Elevation : 17 ft
- IATA code : DND
- Download approach charts


EGPN - Dundee

CURRENT METAR :
  • 191420Z 25037G49KT 9999 VCSH SCT033 SCT041 14/10 Q0989

EXPIRED METARs :
  • 191350Z 24038G49KT 9999 VCSH SCT033 SCT041 14/11 Q0987
  • 191320Z 23035G47KT 9000 VCSH BKN035 15/09 Q0987
  • 191250Z 23037G57KT 9000 VCSH BKN037 15/09 Q0986
  • 191220Z 24036G47KT 9000 VCSH BKN045 15/09 Q0986 RERA
  • 191150Z 24034G49KT 8000 RA FEW010 SCT018 BKN030 16/11 Q0985

TAF TAF EGPN
Valid from the 19 at 15:00 until the 19 at 20:00 UTC


191402Z 1915/1920 23035G45KT 9999 SCT025
PROB30
TEMPO 1915/1920 6000 SHRA
BECMG 1918/1920 23025G35KT
No reported NOTAMs for that airfield.
2 SIGMETs reported for the Scottish FIR (EGPX) :
 
Severe mountain waves
EGPX SIGMET 10 VALID 191300/191700 EGRR
EGPX SCOTTISH FIR SEV MTW FCST WI N5646 W00124 - N5500 E00108 - N5500 W00530 - N5355 W00530 - N5514 W00847 - N6100 W00250 - N6100 E00000 - N6000 E00000 - N5959 E00002 - N5646 W00124 FL030/250 STNR NC=
Severe turbulence
EGPX SIGMET 09 VALID 191300/191700 EGRR
EGPX SCOTTISH FIR SEV TURB FCST SE OF LINE N5633 W01000 - N6049 E00000 SFC/FL060 STNR NC=



MET'MAP, your aeronautical weather chart ! - Copyright ORBIFLY December 2007 - Disclaimer

ORBIFLY MET'MAP TEAM :

Programming & Development : Alexandra Zaïnal
Concept & Development : Baudouin d'Aumeries
Co-Development & Prog : Marc-Olivier Méhu
Technical & hardware support : Manuel Goepfert

Contact : metmap@orbifly.com




SOURCES & CREDITS :

   NOAA